createdAt,value
2023-05-20T00:02:44.554Z,81.80
2023-05-20T00:06:22.063Z,81.86
2023-05-20T00:10:00.021Z,81.91
2023-05-20T00:13:37.948Z,81.99
2023-05-20T00:17:15.757Z,81.85
2023-05-20T00:20:54.833Z,81.79
2023-05-20T00:24:32.772Z,81.51
2023-05-20T00:28:08.117Z,81.50
2023-05-20T00:31:46.261Z,81.43
2023-05-20T00:35:23.439Z,81.40
2023-05-20T00:39:01.195Z,81.36
2023-05-20T00:42:38.779Z,81.20
2023-05-20T00:46:16.637Z,81.08
2023-05-20T00:49:54.217Z,81.18
2023-05-20T00:53:31.920Z,81.23
2023-05-20T00:57:10.254Z,81.42
2023-05-20T01:00:47.132Z,81.51
2023-05-20T01:04:27.433Z,81.25
2023-05-20T01:08:02.547Z,81.13
2023-05-20T01:11:48.676Z,80.94
2023-05-20T01:15:19.448Z,80.98
2023-05-20T01:18:57.558Z,80.68
2023-05-20T01:22:33.668Z,80.90
2023-05-20T01:26:14.062Z,80.97
2023-05-20T01:29:53.561Z,80.94
2023-05-20T01:33:29.810Z,80.98
2023-05-20T01:37:06.653Z,81.02
2023-05-20T01:40:43.360Z,80.89
2023-05-20T01:44:19.479Z,80.80
2023-05-20T01:47:57.040Z,80.43
2023-05-20T01:51:35.527Z,80.20
2023-05-20T01:55:12.476Z,80.04
2023-05-20T01:58:50.075Z,79.96
2023-05-20T02:02:27.632Z,79.81
2023-05-20T02:06:05.709Z,79.71
2023-05-20T02:09:42.801Z,79.52
2023-05-20T02:13:22.334Z,79.60
2023-05-20T02:16:58.298Z,79.81
2023-05-20T02:20:37.404Z,79.77
2023-05-20T02:24:13.524Z,79.90
2023-05-20T02:27:51.522Z,79.98
2023-05-20T02:31:28.902Z,80.03
2023-05-20T02:35:07.655Z,80.37
2023-05-20T02:38:44.774Z,80.76
2023-05-20T02:42:22.473Z,81.13
2023-05-20T02:45:59.751Z,81.51
2023-05-20T02:49:37.441Z,81.58
2023-05-20T02:53:15.131Z,81.69
2023-05-20T02:56:52.977Z,81.65
2023-05-20T03:00:35.683Z,81.77
2023-05-20T03:04:08.534Z,81.81
2023-05-20T03:07:46.537Z,81.91
2023-05-20T03:11:23.714Z,81.90
2023-05-20T03:15:01.363Z,81.92
2023-05-20T03:18:39.555Z,82.00
2023-05-20T03:22:16.839Z,82.05
2023-05-20T03:25:54.155Z,82.18
2023-05-20T03:29:32.145Z,82.33
2023-05-20T03:33:10.025Z,82.51
2023-05-20T03:36:51.273Z,82.60
2023-05-20T03:40:25.292Z,82.71
2023-05-20T03:44:02.991Z,82.87
2023-05-20T03:47:40.902Z,82.97
2023-05-20T03:51:18.569Z,83.04
2023-05-20T03:54:56.238Z,82.94
2023-05-20T03:58:33.430Z,82.88
2023-05-20T04:02:11.158Z,82.85
2023-05-20T04:05:49.342Z,82.71
2023-05-20T04:09:27.599Z,82.50
2023-05-20T04:13:04.386Z,82.69
2023-05-20T04:16:42.041Z,82.62
2023-05-20T04:20:20.406Z,82.72
2023-05-20T04:23:57.301Z,82.71
2023-05-20T04:27:34.592Z,82.67
2023-05-20T04:31:12.718Z,82.68
2023-05-20T04:34:50.796Z,82.64
2023-05-20T04:38:32.486Z,82.48
2023-05-20T04:42:05.438Z,82.77
2023-05-20T04:45:43.053Z,82.56
2023-05-20T04:49:20.980Z,82.65
2023-05-20T04:52:59.185Z,82.36
2023-05-20T04:56:36.472Z,81.96
2023-05-20T05:00:22.791Z,81.94
2023-05-20T05:03:51.533Z,82.04
2023-05-20T05:07:29.209Z,81.30
2023-05-20T05:11:07.252Z,81.27
2023-05-20T05:14:44.534Z,81.03
2023-05-20T05:18:22.305Z,81.10
2023-05-20T05:21:59.738Z,81.28
2023-05-20T05:25:38.151Z,81.35
2023-05-20T05:29:15.388Z,81.27
2023-05-20T05:32:53.324Z,80.99
2023-05-20T05:36:34.225Z,80.73
2023-05-20T05:40:10.537Z,80.77
2023-05-20T05:43:45.913Z,80.95
2023-05-20T05:47:23.566Z,80.87
2023-05-20T05:51:01.601Z,80.91
2023-05-20T05:54:38.801Z,80.79
2023-05-20T05:58:17.442Z,80.65
2023-05-20T06:01:54.712Z,80.62
2023-05-20T06:05:32.701Z,80.79
2023-05-20T06:09:09.691Z,80.52
2023-05-20T06:12:47.096Z,80.22
2023-05-20T06:16:25.062Z,80.27
2023-05-20T06:20:02.678Z,79.99
2023-05-20T06:23:40.358Z,79.61
2023-05-20T06:27:17.880Z,79.43
2023-05-20T06:30:56.180Z,79.41
2023-05-20T06:34:33.417Z,79.15
2023-05-20T06:38:11.240Z,79.22
2023-05-20T06:41:48.827Z,78.89
2023-05-20T06:45:26.509Z,78.63
2023-05-20T06:49:04.420Z,78.65
2023-05-20T06:52:41.928Z,78.52
2023-05-20T06:56:19.513Z,78.48
2023-05-20T06:59:57.399Z,78.51
2023-05-20T07:03:35.113Z,78.56
2023-05-20T07:07:14.109Z,78.71
2023-05-20T07:10:50.414Z,78.83
2023-05-20T07:14:27.788Z,78.80
2023-05-20T07:18:05.420Z,78.71
2023-05-20T07:21:43.248Z,78.59
2023-05-20T07:25:20.617Z,78.39
2023-05-20T07:28:59.005Z,78.16
2023-05-20T07:32:36.066Z,77.90
2023-05-20T07:36:13.845Z,77.82
2023-05-20T07:39:51.485Z,77.77
2023-05-20T07:43:29.181Z,77.75
2023-05-20T07:47:06.806Z,77.77
2023-05-20T07:50:44.753Z,77.69
2023-05-20T07:54:23.615Z,77.50
2023-05-20T07:57:59.894Z,77.42
2023-05-20T08:01:37.393Z,77.52
2023-05-20T08:05:15.296Z,77.29
2023-05-20T08:08:56.139Z,77.09
2023-05-20T08:12:30.744Z,76.84
2023-05-20T08:16:08.182Z,76.74
2023-05-20T08:19:45.777Z,76.32
2023-05-20T08:23:23.294Z,76.12
2023-05-20T08:27:01.351Z,75.89
2023-05-20T08:30:39.951Z,75.77
2023-05-20T08:34:16.631Z,75.62
2023-05-20T08:37:56.993Z,75.48
2023-05-20T08:41:32.110Z,75.06
2023-05-20T08:45:13.147Z,74.69
2023-05-20T08:48:48.385Z,74.53
2023-05-20T08:52:25.747Z,74.14
2023-05-20T08:56:05.557Z,74.33
2023-05-20T08:59:45.736Z,74.07
2023-05-20T09:03:18.805Z,73.93
2023-05-20T09:06:56.104Z,74.14
2023-05-20T09:10:34.037Z,74.13
2023-05-20T09:14:11.133Z,74.11
2023-05-20T09:17:50.250Z,74.35
2023-05-20T09:21:29.425Z,74.56
2023-05-20T09:25:04.247Z,74.35
2023-05-20T09:28:41.654Z,74.82
2023-05-20T09:32:24.426Z,74.34
2023-05-20T09:36:12.023Z,73.89
2023-05-20T09:39:45.896Z,73.42
2023-05-20T09:43:13.785Z,73.35
2023-05-20T09:46:51.503Z,73.25
2023-05-20T09:50:29.179Z,72.67
2023-05-20T09:54:08.495Z,71.86
2023-05-20T09:57:43.396Z,72.40
2023-05-20T10:01:20.879Z,71.54
2023-05-20T10:05:02.062Z,72.05
2023-05-20T10:08:59.100Z,71.93
2023-05-20T10:12:23.123Z,71.87
2023-05-20T10:16:16.470Z,72.08
2023-05-20T10:19:35.778Z,71.30
2023-05-20T10:23:22.311Z,71.04
2023-05-20T10:26:56.709Z,71.62
2023-05-20T10:30:25.428Z,71.10
2023-05-20T10:34:02.750Z,71.11
2023-05-20T10:37:44.857Z,70.45
2023-05-20T10:41:22.127Z,70.99
2023-05-20T10:44:56.384Z,70.94
2023-05-20T10:48:34.094Z,70.85
2023-05-20T10:52:11.459Z,71.24
2023-05-20T10:55:54.929Z,71.31
2023-05-20T10:59:26.925Z,71.65
2023-05-20T11:03:06.602Z,71.35
2023-05-20T11:06:56.186Z,71.62
2023-05-20T11:10:22.186Z,71.46
2023-05-20T11:13:57.714Z,72.16
2023-05-20T11:17:55.309Z,72.04
2023-05-20T11:21:12.722Z,71.64
2023-05-20T11:24:49.955Z,71.80
2023-05-20T11:28:27.541Z,71.89
2023-05-20T11:32:06.820Z,71.96
2023-05-20T11:35:51.474Z,71.97
2023-05-20T11:39:23.740Z,72.41
2023-05-20T11:43:00.650Z,72.51
2023-05-20T11:46:50.004Z,72.49
2023-05-20T11:50:22.927Z,72.59
2023-05-20T11:53:51.826Z,72.52
2023-05-20T11:57:34.611Z,72.82
2023-05-20T12:01:21.009Z,73.10
2023-05-20T12:04:45.822Z,72.76
2023-05-20T12:08:23.417Z,72.82
2023-05-20T12:12:05.966Z,72.43
2023-05-20T12:15:43.547Z,71.87
2023-05-20T12:22:53.527Z,71.23
2023-05-20T12:26:31.593Z,70.85
2023-05-20T12:30:10.576Z,69.80
2023-05-20T12:33:46.782Z,69.72
2023-05-20T12:37:26.473Z,69.77
2023-05-20T12:41:03.955Z,70.11
2023-05-20T12:44:43.751Z,70.00
2023-05-20T12:48:17.111Z,69.75
2023-05-20T12:52:21.866Z,69.12
2023-05-20T12:55:44.480Z,69.53
2023-05-20T12:59:11.571Z,69.71
2023-05-20T13:02:56.710Z,69.74
2023-05-20T13:06:25.290Z,69.95
2023-05-20T13:10:06.443Z,70.25
2023-05-20T13:13:59.554Z,70.35
2023-05-20T13:17:19.365Z,70.60
2023-05-20T13:20:59.500Z,71.00
2023-05-20T13:24:34.958Z,71.54
2023-05-20T13:28:17.005Z,71.74
2023-05-20T13:31:54.109Z,72.13
2023-05-20T13:35:26.445Z,72.00
2023-05-20T13:39:09.375Z,72.02
2023-05-20T13:42:42.858Z,72.14
2023-05-20T13:46:19.560Z,72.51
2023-05-20T13:50:04.736Z,72.05
2023-05-20T13:53:42.248Z,72.40
2023-05-20T13:57:13.753Z,72.71
2023-05-20T14:00:51.936Z,72.67
2023-05-20T14:04:28.289Z,72.42
2023-05-20T14:08:06.417Z,72.93
2023-05-20T14:11:43.679Z,73.47
2023-05-20T14:15:21.877Z,73.60
2023-05-20T14:18:58.979Z,73.88
2023-05-20T14:22:45.737Z,74.15
2023-05-20T14:26:14.133Z,74.27
2023-05-20T14:29:51.818Z,74.30
2023-05-20T14:33:33.661Z,74.29
2023-05-20T14:37:10.261Z,74.51
2023-05-20T14:40:53.019Z,74.01
2023-05-20T14:44:24.433Z,73.70
2023-05-20T14:48:07.940Z,73.65
2023-05-20T14:51:38.008Z,73.67
2023-05-20T14:55:15.676Z,73.57
2023-05-20T14:58:53.263Z,73.57
2023-05-20T15:02:31.091Z,73.86
2023-05-20T15:06:08.673Z,74.22
2023-05-20T15:09:46.417Z,74.24
2023-05-20T15:13:24.157Z,74.11
2023-05-20T15:17:01.788Z,73.60
2023-05-20T15:20:39.602Z,73.23
2023-05-20T15:24:16.874Z,72.96
2023-05-20T15:27:54.483Z,72.68
2023-05-20T15:31:32.475Z,72.34
2023-05-20T15:35:10.170Z,72.08
2023-05-20T15:38:47.363Z,72.08
2023-05-20T15:42:25.894Z,72.06
2023-05-20T15:46:02.822Z,72.15
2023-05-20T15:49:41.086Z,72.04
2023-05-20T15:53:18.283Z,71.97
2023-05-20T15:56:56.225Z,72.16
2023-05-20T16:00:33.987Z,72.36
2023-05-20T16:04:12.523Z,72.50
2023-05-20T16:07:56.196Z,72.98
2023-05-20T16:11:54.934Z,72.71
2023-05-20T16:15:36.935Z,72.74
2023-05-20T16:19:08.528Z,72.83
2023-05-20T16:22:45.132Z,72.73
2023-05-20T16:26:23.247Z,73.06
2023-05-20T16:29:56.935Z,72.77
2023-05-20T16:33:34.563Z,72.95
2023-05-20T16:37:11.840Z,72.87
2023-05-20T16:40:54.260Z,73.07
2023-05-20T16:44:26.490Z,73.19
2023-05-20T16:48:04.646Z,72.98
2023-05-20T16:51:41.776Z,73.00
2023-05-20T16:55:19.398Z,72.91
2023-05-20T16:58:57.257Z,72.83
2023-05-20T17:02:35.465Z,72.85
2023-05-20T17:06:12.593Z,72.77
2023-05-20T17:09:50.013Z,72.68
2023-05-20T17:13:27.495Z,72.64
2023-05-20T17:17:09.989Z,72.93
2023-05-20T17:20:43.466Z,72.82
2023-05-20T17:24:21.307Z,73.07
2023-05-20T17:27:58.071Z,72.91
2023-05-20T17:31:36.280Z,73.02
2023-05-20T17:35:13.991Z,73.17
2023-05-20T17:38:52.016Z,73.50
2023-05-20T17:42:29.294Z,73.58
2023-05-20T17:46:06.743Z,73.70
2023-05-20T17:49:46.279Z,73.74
2023-05-20T17:53:22.519Z,73.90
2023-05-20T17:57:00.251Z,74.06
2023-05-20T18:00:42.364Z,74.63
2023-05-20T18:04:15.849Z,74.54
2023-05-20T18:07:53.539Z,74.90
2023-05-20T18:11:32.469Z,75.19
2023-05-20T18:15:09.303Z,74.86
2023-05-20T18:18:46.630Z,74.94
2023-05-20T18:22:23.669Z,75.03
2023-05-20T18:26:06.580Z,75.00
2023-05-20T18:29:39.291Z,75.09
2023-05-20T18:33:16.870Z,75.25
2023-05-20T18:36:54.705Z,75.43
2023-05-20T18:40:32.508Z,75.54
2023-05-20T18:44:10.010Z,75.69
2023-05-20T18:47:47.589Z,75.96
2023-05-20T18:51:26.590Z,76.01
2023-05-20T18:55:03.215Z,76.12
2023-05-20T18:58:41.038Z,76.15
2023-05-20T19:02:18.158Z,76.10
2023-05-20T19:05:56.089Z,76.15
2023-05-20T19:09:33.444Z,76.23
2023-05-20T19:13:11.394Z,76.32
2023-05-20T19:16:49.373Z,76.39
2023-05-20T19:20:26.682Z,76.46
2023-05-20T19:24:04.381Z,76.56
2023-05-20T19:27:41.483Z,76.62
2023-05-20T19:31:21.354Z,76.57
2023-05-20T19:34:57.079Z,76.67
2023-05-20T19:38:34.657Z,76.71
2023-05-20T19:42:12.589Z,76.71
2023-05-20T19:45:50.261Z,76.68
2023-05-20T19:49:29.667Z,76.68
2023-05-20T19:53:07.746Z,76.66
2023-05-20T19:56:43.085Z,76.79
2023-05-20T20:00:21.806Z,76.82
2023-05-20T20:04:00.580Z,76.90
2023-05-20T20:07:36.238Z,76.86
2023-05-20T20:11:14.287Z,76.89
2023-05-20T20:14:52.239Z,76.83
2023-05-20T20:18:32.904Z,76.87
2023-05-20T20:22:06.670Z,76.90
2023-05-20T20:26:05.420Z,77.44
2023-05-20T20:29:22.560Z,77.22
2023-05-20T20:32:59.524Z,77.07
2023-05-20T20:36:37.892Z,77.15
2023-05-20T20:40:15.260Z,77.27
2023-05-20T20:43:53.156Z,77.28
2023-05-20T20:51:08.384Z,77.53
2023-05-20T20:54:47.960Z,77.74
2023-05-20T20:58:23.392Z,77.86
2023-05-20T21:02:01.957Z,78.01
2023-05-20T21:05:50.426Z,78.27
2023-05-20T21:09:29.511Z,78.35
2023-05-20T21:13:00.538Z,78.37
2023-05-20T21:16:42.297Z,78.44
2023-05-20T21:20:10.911Z,78.52
2023-05-20T21:23:53.031Z,78.71
2023-05-20T21:27:24.988Z,78.78
2023-05-20T21:31:10.416Z,78.79
2023-05-20T21:34:41.830Z,78.88
2023-05-20T21:38:17.683Z,78.96
2023-05-20T21:41:56.002Z,78.84
2023-05-20T21:45:33.184Z,78.73
2023-05-20T21:49:10.828Z,78.77
2023-05-20T21:52:48.406Z,78.86
2023-05-20T21:56:26.668Z,78.94
2023-05-20T22:00:16.267Z,79.08
2023-05-20T22:03:47.876Z,79.17
2023-05-20T22:07:19.534Z,79.33
2023-05-20T22:11:00.918Z,79.36
2023-05-20T22:14:35.506Z,79.31
2023-05-20T22:18:15.054Z,79.33
2023-05-20T22:21:51.266Z,79.30
2023-05-20T22:25:30.608Z,79.55
2023-05-20T22:29:06.632Z,79.49
2023-05-20T22:32:43.886Z,79.12
2023-05-20T22:36:22.532Z,78.29
2023-05-20T22:40:04.803Z,77.52
2023-05-20T22:43:37.048Z,77.09
2023-05-20T22:47:14.162Z,76.84
2023-05-20T22:50:51.811Z,76.63
2023-05-20T22:54:29.671Z,76.63
2023-05-20T22:58:08.318Z,76.69
2023-05-20T23:01:46.206Z,76.76
2023-05-20T23:05:22.099Z,76.79
2023-05-20T23:08:59.784Z,76.63
2023-05-20T23:12:37.562Z,76.56
2023-05-20T23:16:17.129Z,76.59
2023-05-20T23:19:53.827Z,76.67
2023-05-20T23:23:32.074Z,76.75
2023-05-20T23:27:08.353Z,76.63
2023-05-20T23:30:46.065Z,76.78
2023-05-20T23:34:27.366Z,77.05
2023-05-20T23:38:00.975Z,77.43
2023-05-20T23:41:38.674Z,77.58
2023-05-20T23:45:16.357Z,77.50
2023-05-20T23:48:53.960Z,77.56
2023-05-20T23:52:32.074Z,77.83
2023-05-20T23:56:09.508Z,77.79
2023-05-20T23:59:49.134Z,77.64
